createdAt,value
2022-10-01T00:01:16.760Z,99961.69
2022-10-01T00:03:43.653Z,99957.31
2022-10-01T00:06:20.014Z,99957.31
2022-10-01T00:08:49.512Z,99956.53
2022-10-01T00:11:26.599Z,99956.47
2022-10-01T00:13:54.159Z,99960.78
2022-10-01T00:16:23.924Z,99959.00
2022-10-01T00:18:51.719Z,99968.66
2022-10-01T00:21:20.608Z,99957.38
2022-10-01T00:23:47.682Z,99959.28
2022-10-01T00:26:17.541Z,99957.53
2022-10-01T00:28:46.378Z,99949.69
2022-10-01T00:31:14.433Z,99946.28
2022-10-01T00:33:41.371Z,99939.34
2022-10-01T00:36:09.798Z,99945.44
2022-10-01T00:38:37.857Z,99933.25
2022-10-01T00:41:08.013Z,99928.00
2022-10-01T00:43:37.885Z,99929.78
2022-10-01T00:46:29.116Z,99925.41
2022-10-01T00:49:00.065Z,99918.41
2022-10-01T00:51:31.858Z,99901.91
2022-10-01T00:54:04.869Z,99899.28
2022-10-01T00:56:32.022Z,99892.28
2022-10-01T00:58:58.916Z,99882.78
2022-10-01T01:01:25.486Z,99868.84
2022-10-01T01:03:52.089Z,99869.78
2022-10-01T01:06:18.690Z,99868.91
2022-10-01T01:08:45.460Z,99856.75
2022-10-01T01:11:50.694Z,99862.03
2022-10-01T01:14:34.598Z,99857.72
2022-10-01T01:17:10.785Z,99845.53
2022-10-01T01:20:02.042Z,99849.06
2022-10-01T01:22:34.582Z,99843.81
2022-10-01T01:25:16.460Z,99837.75
2022-10-01T01:27:51.235Z,99829.09
2022-10-01T01:30:18.668Z,99824.78
2022-10-01T01:32:53.022Z,99814.25
2022-10-01T01:35:32.175Z,99812.56
2022-10-01T01:38:07.720Z,99798.63
2022-10-01T01:40:37.420Z,99788.16
2022-10-01T01:43:08.119Z,99780.31
2022-10-01T01:45:40.035Z,99768.13
2022-10-01T01:48:09.867Z,99755.97
2022-10-01T01:50:42.585Z,99742.94
2022-10-01T01:53:09.348Z,99727.28
2022-10-01T01:55:37.092Z,99709.88
2022-10-01T01:58:03.900Z,99715.13
2022-10-01T02:00:30.377Z,99716.00
2022-10-01T02:02:58.001Z,99729.97
2022-10-01T02:05:29.060Z,99733.50
2022-10-01T02:08:01.751Z,99736.06
2022-10-01T02:10:49.743Z,99737.81
2022-10-01T02:13:38.964Z,99723.03
2022-10-01T02:16:18.836Z,99737.03
2022-10-01T02:18:53.508Z,99732.69
2022-10-01T02:21:27.031Z,99747.47
2022-10-01T02:24:08.503Z,99752.63
2022-10-01T02:26:38.100Z,99756.19
2022-10-01T02:29:08.917Z,99749.19
2022-10-01T02:31:36.031Z,99750.94
2022-10-01T02:34:12.180Z,99753.50
2022-10-01T02:36:42.068Z,99761.34
2022-10-01T02:39:10.404Z,99751.72
2022-10-01T02:41:37.279Z,99761.34
2022-10-01T02:44:10.475Z,99760.47
2022-10-01T02:46:54.073Z,99747.34
2022-10-01T02:49:20.692Z,99734.31
2022-10-01T02:51:59.391Z,99724.72
2022-10-01T02:54:30.516Z,99729.97
2022-10-01T02:57:16.997Z,99682.88
2022-10-01T02:59:43.550Z,99685.56
2022-10-01T03:02:10.346Z,99689.94
2022-10-01T03:04:36.904Z,99701.19
2022-10-01T03:07:04.426Z,99705.63
2022-10-01T03:09:32.105Z,99698.63
2022-10-01T03:11:59.460Z,99689.94
2022-10-01T03:14:25.966Z,99662.88
2022-10-01T03:16:52.925Z,99663.78
2022-10-01T03:19:20.056Z,99656.78
2022-10-01T03:21:47.385Z,99659.41
2022-10-01T03:24:13.839Z,99666.31
2022-10-01T03:26:40.443Z,99672.47
2022-10-01T03:29:06.873Z,99649.84
2022-10-01T03:31:33.698Z,99647.16
2022-10-01T03:34:00.769Z,99644.56
2022-10-01T03:36:27.679Z,99641.09
2022-10-01T03:38:54.157Z,99638.41
2022-10-01T03:41:20.765Z,99621.00
2022-10-01T03:43:47.159Z,99608.84
2022-10-01T03:46:13.679Z,99606.22
2022-10-01T03:48:40.241Z,99617.53
2022-10-01T03:51:07.105Z,99605.31
2022-10-01T03:53:33.555Z,99606.16
2022-10-01T03:56:00.487Z,99593.16
2022-10-01T03:58:27.174Z,99591.38
2022-10-01T04:00:57.696Z,99590.59
2022-10-01T04:03:24.156Z,99585.38
2022-10-01T04:05:50.568Z,99591.44
2022-10-01T04:08:19.745Z,99580.06
2022-10-01T04:10:50.134Z,99584.41
2022-10-01T04:13:17.606Z,99596.63
2022-10-01T04:15:44.448Z,99585.31
2022-10-01T04:18:10.975Z,99585.31
2022-10-01T04:20:38.132Z,99572.22
2022-10-01T04:23:05.536Z,99592.25
2022-10-01T04:25:32.111Z,99612.25
2022-10-01T04:28:05.335Z,99598.31
2022-10-01T04:30:34.604Z,99606.16
2022-10-01T04:33:01.622Z,99586.06
2022-10-01T04:35:28.803Z,99586.91
2022-10-01T04:38:12.390Z,99600.00
2022-10-01T04:40:38.954Z,99613.91
2022-10-01T04:43:09.591Z,99615.59
2022-10-01T04:45:37.311Z,99620.84
2022-10-01T04:48:05.076Z,99605.94
2022-10-01T04:50:32.088Z,99591.16
2022-10-01T04:52:58.490Z,99603.44
2022-10-01T04:55:25.002Z,99601.50
2022-10-01T04:57:51.475Z,99591.03
2022-10-01T05:00:21.754Z,99586.66
2022-10-01T05:02:50.086Z,99568.34
2022-10-01T05:05:18.811Z,99563.09
2022-10-01T05:07:45.256Z,99556.09
2022-10-01T05:10:14.093Z,99561.28
2022-10-01T05:12:41.360Z,99556.03
2022-10-01T05:15:08.450Z,99563.88
2022-10-01T05:17:35.932Z,99569.88
2022-10-01T05:20:05.713Z,99567.22
2022-10-01T05:22:32.242Z,99579.44
2022-10-01T05:25:00.166Z,99568.97
2022-10-01T05:27:27.617Z,99569.75
2022-10-01T05:29:54.187Z,99565.38
2022-10-01T05:32:20.577Z,99563.63
2022-10-01T05:34:51.208Z,99577.53
2022-10-01T05:37:19.959Z,99585.25
2022-10-01T05:39:46.549Z,99578.19
2022-10-01T05:42:13.130Z,99578.19
2022-10-01T05:44:40.880Z,99583.44
2022-10-01T05:47:07.828Z,99574.66
2022-10-01T05:49:34.296Z,99574.66
2022-10-01T05:52:01.113Z,99592.88
2022-10-01T05:54:29.333Z,99586.69
2022-10-01T05:56:57.061Z,99593.56
2022-10-01T05:59:25.517Z,99591.84
2022-10-01T06:01:53.913Z,99600.63
2022-10-01T06:04:20.357Z,99596.97
2022-10-01T06:06:46.900Z,99600.50
2022-10-01T06:09:13.885Z,99602.25
2022-10-01T06:11:40.675Z,99595.19
2022-10-01T06:14:07.210Z,99604.72
2022-10-01T06:16:34.053Z,99614.34
2022-10-01T06:19:00.549Z,99608.25
2022-10-01T06:21:27.671Z,99608.28
2022-10-01T06:23:54.792Z,99616.97
2022-10-01T06:26:21.736Z,99622.22
2022-10-01T06:28:52.646Z,99622.13
2022-10-01T06:31:21.116Z,99628.28
2022-10-01T06:33:47.651Z,99631.81
2022-10-01T06:36:14.123Z,99630.06
2022-10-01T06:38:40.596Z,99643.13
2022-10-01T06:41:07.063Z,99627.44
2022-10-01T06:43:33.713Z,99623.91
2022-10-01T06:46:04.885Z,99620.19
2022-10-01T06:48:32.513Z,99620.25
2022-10-01T06:50:59.571Z,99619.38
2022-10-01T06:53:28.150Z,99623.78
2022-10-01T06:55:55.693Z,99624.47
2022-10-01T06:58:26.137Z,99621.91
2022-10-01T07:00:58.943Z,99634.03
2022-10-01T07:03:25.760Z,99618.38
2022-10-01T07:05:52.336Z,99628.78
2022-10-01T07:08:18.894Z,99622.56
2022-10-01T07:10:45.692Z,99626.69
2022-10-01T07:13:17.726Z,99639.31
2022-10-01T07:15:45.327Z,99635.81
2022-10-01T07:18:12.777Z,99638.28
2022-10-01T07:20:40.618Z,99637.19
2022-10-01T07:23:10.771Z,99640.63
2022-10-01T07:25:38.865Z,99647.38
2022-10-01T07:28:07.910Z,99652.59
2022-10-01T07:30:35.102Z,99643.84
2022-10-01T07:33:01.561Z,99652.16
2022-10-01T07:35:28.480Z,99654.84
2022-10-01T07:37:55.320Z,99651.19
2022-10-01T07:40:22.022Z,99665.69
2022-10-01T07:42:56.138Z,99665.75
2022-10-01T07:45:24.130Z,99669.94
2022-10-01T07:48:01.043Z,99674.34
2022-10-01T07:50:30.478Z,99682.19
2022-10-01T07:52:59.195Z,99680.41
2022-10-01T07:55:28.465Z,99681.19
2022-10-01T07:57:56.806Z,99688.91
2022-10-01T08:00:26.830Z,99685.38
2022-10-01T08:02:56.018Z,99686.13
2022-10-01T08:05:31.228Z,99688.47
2022-10-01T08:08:02.870Z,99694.47
2022-10-01T08:10:30.051Z,99690.66
2022-10-01T08:13:01.499Z,99687.97
2022-10-01T08:15:29.175Z,99693.06
2022-10-01T08:17:55.660Z,99697.38
2022-10-01T08:20:22.136Z,99693.19
2022-10-01T08:22:48.564Z,99696.59
2022-10-01T08:25:15.120Z,99704.16
2022-10-01T08:27:41.614Z,99705.03
2022-10-01T08:30:08.515Z,99716.16
2022-10-01T08:32:35.025Z,99715.38
2022-10-01T08:35:01.506Z,99709.31
2022-10-01T08:37:29.322Z,99712.78
2022-10-01T08:39:56.935Z,99718.03
2022-10-01T08:42:51.718Z,99715.25
2022-10-01T08:45:41.693Z,99725.66
2022-10-01T08:48:20.948Z,99736.09
2022-10-01T08:50:54.720Z,99735.94
2022-10-01T08:53:49.940Z,99735.94
2022-10-01T08:56:27.844Z,99738.41
2022-10-01T08:59:00.583Z,99746.91
2022-10-01T09:01:27.347Z,99737.94
2022-10-01T09:03:54.102Z,99740.59
2022-10-01T09:06:26.373Z,99743.19
2022-10-01T09:09:07.991Z,99743.28
2022-10-01T09:11:49.653Z,99749.75
2022-10-01T09:14:19.322Z,99737.28
2022-10-01T09:16:58.290Z,99746.06
2022-10-01T09:19:47.959Z,99741.81
2022-10-01T09:22:27.767Z,99744.38
2022-10-01T09:25:07.081Z,99760.66
2022-10-01T09:27:33.915Z,99764.88
2022-10-01T09:30:05.392Z,99762.28
2022-10-01T09:32:39.079Z,99761.66
2022-10-01T09:35:58.079Z,99759.97
2022-10-01T09:38:39.216Z,99760.47
2022-10-01T09:41:08.366Z,99761.44
2022-10-01T09:43:38.297Z,99772.75
2022-10-01T09:46:13.252Z,99763.81
2022-10-01T09:49:20.821Z,99767.28
2022-10-01T09:51:53.310Z,99778.28
2022-10-01T09:54:44.663Z,99780.44
2022-10-01T09:57:16.104Z,99782.94
2022-10-01T10:00:05.936Z,99780.84
2022-10-01T10:02:38.840Z,99782.50
2022-10-01T10:05:20.131Z,99780.72
2022-10-01T10:07:51.907Z,99781.50
2022-10-01T10:10:26.251Z,99784.19
2022-10-01T10:13:18.045Z,99783.19
2022-10-01T10:15:59.517Z,99789.13
2022-10-01T10:18:30.646Z,99799.44
2022-10-01T10:20:59.330Z,99798.56
2022-10-01T10:23:31.652Z,99798.38
2022-10-01T10:26:01.087Z,99812.28
2022-10-01T10:28:28.986Z,99809.56
2022-10-01T10:30:57.592Z,99812.19
2022-10-01T10:33:26.316Z,99807.03
2022-10-01T10:35:59.078Z,99813.09
2022-10-01T10:38:30.102Z,99819.94
2022-10-01T10:40:57.664Z,99826.03
2022-10-01T10:43:29.142Z,99823.00
2022-10-01T10:45:57.677Z,99820.44
2022-10-01T10:48:31.025Z,99826.88
2022-10-01T10:51:03.326Z,99829.88
2022-10-01T10:53:40.594Z,99833.09
2022-10-01T10:56:24.036Z,99833.59
2022-10-01T10:58:52.059Z,99844.31
2022-10-01T11:01:26.914Z,99835.72
2022-10-01T11:04:00.072Z,99844.13
2022-10-01T11:06:27.231Z,99839.53
2022-10-01T11:09:01.491Z,99842.19
2022-10-01T11:11:46.263Z,99840.25
2022-10-01T11:14:51.251Z,99831.41
2022-10-01T11:17:46.001Z,99850.03
2022-10-01T11:20:33.523Z,99843.63
2022-10-01T11:23:29.782Z,99842.44
2022-10-01T11:26:41.451Z,99839.97
2022-10-01T11:29:26.344Z,99851.47
2022-10-01T11:31:58.929Z,99852.03
2022-10-01T11:34:53.260Z,99851.72
2022-10-01T11:37:33.585Z,99856.59
2022-10-01T11:40:05.109Z,99844.34
2022-10-01T11:42:36.585Z,99845.44
2022-10-01T11:45:15.180Z,99839.31
2022-10-01T11:47:47.268Z,99849.78
2022-10-01T11:50:16.515Z,99853.91
2022-10-01T11:53:05.264Z,99857.56
2022-10-01T11:56:15.035Z,99874.78
2022-10-01T11:59:07.292Z,99864.22
2022-10-01T12:01:45.033Z,99862.38
2022-10-01T12:04:22.968Z,99859.81
2022-10-01T12:07:13.631Z,99870.88
2022-10-01T12:09:55.094Z,99867.63
2022-10-01T12:12:30.849Z,99879.66
2022-10-01T12:15:07.027Z,99877.31
2022-10-01T12:17:52.467Z,99884.50
2022-10-01T12:20:44.286Z,99884.34
2022-10-01T12:23:26.138Z,99873.09
2022-10-01T12:26:08.165Z,99884.34
2022-10-01T12:29:03.486Z,99888.44
2022-10-01T12:32:09.901Z,99899.78
2022-10-01T12:34:53.280Z,99901.19
2022-10-01T12:37:49.766Z,99911.13
2022-10-01T12:40:45.943Z,99908.25
2022-10-01T12:43:27.625Z,99904.47
2022-10-01T12:46:25.810Z,99922.09
2022-10-01T12:49:00.719Z,99934.09
2022-10-01T12:51:52.972Z,99927.66
2022-10-01T12:54:30.949Z,99930.34
2022-10-01T12:57:36.847Z,99939.91
2022-10-01T13:00:11.506Z,99947.72
2022-10-01T13:03:04.182Z,99953.03
2022-10-01T13:06:08.072Z,99942.84
2022-10-01T13:09:06.823Z,99947.69
2022-10-01T13:12:08.432Z,99961.78
2022-10-01T13:14:35.809Z,99974.06
2022-10-01T13:17:33.874Z,99968.75
2022-10-01T13:20:16.559Z,99980.13
2022-10-01T13:23:08.988Z,99967.47
2022-10-01T13:26:00.264Z,99973.31
2022-10-01T13:29:00.551Z,99969.81
2022-10-01T13:31:39.913Z,99978.38
2022-10-01T13:34:43.111Z,99976.44
2022-10-01T13:37:29.779Z,99972.50
2022-10-01T13:39:57.496Z,99983.09
2022-10-01T13:42:31.340Z,99986.91
2022-10-01T13:45:05.226Z,99985.44
2022-10-01T13:47:36.203Z,99987.38
2022-10-01T13:50:06.565Z,99988.31
2022-10-01T13:52:33.862Z,99989.16
2022-10-01T13:55:01.734Z,100014.34
2022-10-01T13:57:38.888Z,100011.94
2022-10-01T14:00:08.249Z,100048.03
2022-10-01T14:02:37.133Z,100065.28
2022-10-01T14:05:15.892Z,100031.03
2022-10-01T14:07:45.056Z,100047.28
2022-10-01T14:10:15.311Z,100045.69
2022-10-01T14:13:03.448Z,100047.75
2022-10-01T14:15:57.513Z,100048.88
2022-10-01T14:18:28.455Z,100043.66
2022-10-01T14:21:12.365Z,100042.06
2022-10-01T14:23:44.779Z,100055.91
2022-10-01T14:26:29.092Z,100039.34
2022-10-01T14:29:09.289Z,100045.22
2022-10-01T14:32:01.911Z,100061.47
2022-10-01T14:34:42.914Z,100068.75
2022-10-01T14:37:17.316Z,100068.84
2022-10-01T14:39:44.124Z,100084.53
2022-10-01T14:42:16.965Z,100090.31
2022-10-01T14:44:46.317Z,100093.09
2022-10-01T14:47:20.951Z,100086.22
2022-10-01T14:49:48.690Z,100078.97
2022-10-01T14:52:22.147Z,100077.25
2022-10-01T14:54:51.381Z,100080.81
2022-10-01T14:57:35.137Z,100089.19
2022-10-01T15:00:11.066Z,100088.97
2022-10-01T15:02:46.484Z,100096.94
2022-10-01T15:05:37.184Z,100107.31
2022-10-01T15:08:13.896Z,100110.81
2022-10-01T15:11:02.938Z,100110.91
2022-10-01T15:13:42.374Z,100123.22
2022-10-01T15:16:16.345Z,100125.84
2022-10-01T15:18:47.799Z,100125.91
2022-10-01T15:21:19.997Z,100127.63
2022-10-01T15:23:48.943Z,100137.16
2022-10-01T15:26:21.500Z,100137.84
2022-10-01T15:28:48.418Z,100139.28
2022-10-01T15:31:16.623Z,100142.84
2022-10-01T15:33:43.574Z,100147.78
2022-10-01T15:36:18.524Z,100143.47
2022-10-01T15:38:47.218Z,100147.31
2022-10-01T15:41:31.469Z,100155.50
2022-10-01T15:44:02.467Z,100157.19
2022-10-01T15:46:33.171Z,100166.56
2022-10-01T15:49:19.362Z,100175.38
2022-10-01T15:52:14.179Z,100176.88
2022-10-01T15:54:42.975Z,100174.13
2022-10-01T15:57:15.985Z,100172.66
2022-10-01T15:59:42.598Z,100176.34
2022-10-01T16:02:18.672Z,100186.63
2022-10-01T16:04:46.808Z,100195.94
2022-10-01T16:07:29.779Z,100202.91
2022-10-01T16:09:58.556Z,100194.44
2022-10-01T16:12:27.812Z,100198.22
2022-10-01T16:15:00.107Z,100205.31
2022-10-01T16:17:32.264Z,100209.88
2022-10-01T16:20:01.572Z,100220.19
2022-10-01T16:22:37.441Z,100217.78
2022-10-01T16:25:09.174Z,100222.34
2022-10-01T16:27:49.555Z,100227.03
2022-10-01T16:30:32.707Z,100230.84
2022-10-01T16:33:02.412Z,100239.22
2022-10-01T16:35:32.612Z,100234.66
2022-10-01T16:37:59.440Z,100237.63
2022-10-01T16:40:28.658Z,100239.53
2022-10-01T16:42:55.752Z,100244.06
2022-10-01T16:45:24.648Z,100248.41
2022-10-01T16:47:52.089Z,100251.47
2022-10-01T16:50:21.530Z,100254.38
2022-10-01T16:52:51.899Z,100254.53
2022-10-01T16:55:25.128Z,100253.91
2022-10-01T16:57:56.409Z,100263.84
2022-10-01T17:00:26.439Z,100267.75
2022-10-01T17:02:57.080Z,100277.81
2022-10-01T17:05:29.116Z,100282.56
2022-10-01T17:08:00.849Z,100294.22
2022-10-01T17:10:31.006Z,100292.84
2022-10-01T17:12:59.355Z,100294.97
2022-10-01T17:15:28.066Z,100302.44
2022-10-01T17:17:55.660Z,100304.53
2022-10-01T17:20:24.380Z,100309.16
2022-10-01T17:22:51.867Z,100312.78
2022-10-01T17:25:21.584Z,100319.09
2022-10-01T17:27:48.785Z,100320.88
2022-10-01T17:30:16.247Z,100335.91
2022-10-01T17:32:43.314Z,100341.28
2022-10-01T17:35:11.871Z,100344.09
2022-10-01T17:37:38.572Z,100345.94
2022-10-01T17:40:06.741Z,100349.53
2022-10-01T17:42:34.523Z,100355.75
2022-10-01T17:45:02.639Z,100353.19
2022-10-01T17:47:29.048Z,100369.94
2022-10-01T17:49:55.472Z,100368.28
2022-10-01T17:52:21.940Z,100385.00
2022-10-01T17:54:48.437Z,100386.91
2022-10-01T17:57:14.867Z,100395.00
2022-10-01T17:59:41.275Z,100408.25
2022-10-01T18:02:29.576Z,100416.91
2022-10-01T18:04:56.402Z,100419.38
2022-10-01T18:07:24.044Z,100426.16
2022-10-01T18:09:52.672Z,100431.91
2022-10-01T18:12:19.589Z,100434.25
2022-10-01T18:14:46.118Z,100437.63
2022-10-01T18:17:12.585Z,100451.50
2022-10-01T18:19:54.512Z,100450.53
2022-10-01T18:22:21.244Z,100451.44
2022-10-01T18:24:48.774Z,100452.47
2022-10-01T18:27:15.313Z,100460.63
2022-10-01T18:29:41.924Z,100461.78
2022-10-01T18:32:17.394Z,100457.78
2022-10-01T18:35:06.156Z,100466.91
2022-10-01T18:37:40.320Z,100480.16
2022-10-01T18:40:19.008Z,100476.06
2022-10-01T18:42:59.317Z,100485.97
2022-10-01T18:46:07.738Z,100486.88
2022-10-01T18:49:01.656Z,100494.06
2022-10-01T18:51:51.848Z,100494.28
2022-10-01T18:54:34.554Z,100505.66
2022-10-01T18:57:11.083Z,100503.09
2022-10-01T18:59:58.165Z,100509.19
2022-10-01T19:02:53.309Z,100511.00
2022-10-01T19:05:26.755Z,100523.28
2022-10-01T19:08:11.964Z,100520.81
2022-10-01T19:10:57.440Z,100534.91
2022-10-01T19:13:42.189Z,100538.50
2022-10-01T19:16:27.489Z,100529.97
2022-10-01T19:19:24.889Z,100537.03
2022-10-01T19:22:00.815Z,100531.91
2022-10-01T19:24:42.996Z,100540.72
2022-10-01T19:27:33.921Z,100553.84
2022-10-01T19:30:08.908Z,100561.59
2022-10-01T19:32:56.461Z,100568.56
2022-10-01T19:35:38.606Z,100572.22
2022-10-01T19:38:34.044Z,100571.31
2022-10-01T19:41:16.068Z,100572.22
2022-10-01T19:44:06.665Z,100568.72
2022-10-01T19:46:45.346Z,100575.78
2022-10-01T19:49:20.427Z,100578.50
2022-10-01T19:51:59.122Z,100578.56
2022-10-01T19:54:31.953Z,100580.41
2022-10-01T19:57:25.748Z,100577.78
2022-10-01T19:59:58.252Z,100584.88
2022-10-01T20:02:38.113Z,100591.88
2022-10-01T20:05:10.236Z,100583.31
2022-10-01T20:07:46.962Z,100583.31
2022-10-01T20:10:20.149Z,100585.09
2022-10-01T20:13:11.713Z,100582.56
2022-10-01T20:16:06.276Z,100598.38
2022-10-01T20:18:51.664Z,100607.09
2022-10-01T20:21:49.949Z,100615.91
2022-10-01T20:24:28.753Z,100615.94
2022-10-01T20:27:31.035Z,100626.41
2022-10-01T20:30:14.324Z,100629.16
2022-10-01T20:33:08.940Z,100625.72
2022-10-01T20:36:04.543Z,100625.72
2022-10-01T20:38:38.264Z,100623.22
2022-10-01T20:41:17.034Z,100625.88
2022-10-01T20:43:50.586Z,100629.41
2022-10-01T20:46:33.871Z,100632.97
2022-10-01T20:49:23.243Z,100634.91
2022-10-01T20:52:17.031Z,100635.78
2022-10-01T20:54:59.040Z,100637.47
2022-10-01T20:57:44.547Z,100642.69
2022-10-01T21:00:19.462Z,100645.41
2022-10-01T21:02:54.662Z,100638.41
2022-10-01T21:05:37.930Z,100651.59
2022-10-01T21:08:34.320Z,100657.72
2022-10-01T21:11:07.128Z,100667.31
2022-10-01T21:13:41.390Z,100665.63
2022-10-01T21:16:45.736Z,100674.44
2022-10-01T21:19:57.553Z,100671.91
2022-10-01T21:22:45.759Z,100672.75
2022-10-01T21:25:38.781Z,100674.53
2022-10-01T21:28:13.005Z,100678.84
2022-10-01T21:30:54.442Z,100672.75
2022-10-01T21:33:37.255Z,100687.63
2022-10-01T21:36:27.815Z,100686.75
2022-10-01T21:39:18.172Z,100691.13
2022-10-01T21:42:19.086Z,100699.94
2022-10-01T21:45:03.136Z,100694.69
2022-10-01T21:47:29.507Z,100707.81
2022-10-01T21:50:20.579Z,100707.88
2022-10-01T21:53:18.116Z,100714.88
2022-10-01T21:56:12.411Z,100714.03
2022-10-01T21:59:05.679Z,100715.81
2022-10-01T22:02:14.929Z,100711.44
2022-10-01T22:05:11.411Z,100726.34
2022-10-01T22:07:50.836Z,100728.13
2022-10-01T22:10:28.234Z,100729.84
2022-10-01T22:13:00.383Z,100725.59
2022-10-01T22:15:36.347Z,100729.16
2022-10-01T22:18:05.414Z,100737.91
2022-10-01T22:20:34.851Z,100740.72
2022-10-01T22:23:08.213Z,100733.69
2022-10-01T22:25:40.777Z,100738.09
2022-10-01T22:28:14.566Z,100754.69
2022-10-01T22:30:43.432Z,100756.38
2022-10-01T22:33:18.345Z,100752.88
2022-10-01T22:35:52.887Z,100765.16
2022-10-01T22:38:39.132Z,100761.66
2022-10-01T22:41:17.305Z,100766.06
2022-10-01T22:43:45.659Z,100772.13
2022-10-01T22:46:21.247Z,100766.84
2022-10-01T22:48:57.383Z,100766.75
2022-10-01T22:52:01.975Z,100775.41
2022-10-01T22:54:53.467Z,100784.03
2022-10-01T22:58:01.348Z,100773.53
2022-10-01T23:00:28.186Z,100772.66
2022-10-01T23:03:40.005Z,100776.25
2022-10-01T23:06:23.079Z,100777.22
2022-10-01T23:09:18.337Z,100779.03
2022-10-01T23:11:59.812Z,100775.59
2022-10-01T23:14:29.205Z,100769.47
2022-10-01T23:17:09.059Z,100771.19
2022-10-01T23:19:41.660Z,100776.44
2022-10-01T23:22:39.181Z,100774.66
2022-10-01T23:25:19.275Z,100773.94
2022-10-01T23:27:56.928Z,100767.81
2022-10-01T23:30:23.632Z,100761.69
2022-10-01T23:33:11.871Z,100768.59
2022-10-01T23:36:23.164Z,100763.47
2022-10-01T23:38:52.571Z,100763.50
2022-10-01T23:41:25.341Z,100777.50
2022-10-01T23:43:55.632Z,100770.59
2022-10-01T23:46:27.354Z,100775.81
2022-10-01T23:49:05.048Z,100778.50
2022-10-01T23:51:52.127Z,100781.94
2022-10-01T23:54:27.523Z,100789.91
2022-10-01T23:57:02.856Z,100783.00
2022-10-01T23:59:47.181Z,100786.56
